createdAt,value
2018-01-06T00:00:25.114Z,955.3
2018-01-06T00:01:28.373Z,955.3
2018-01-06T00:02:30.228Z,955.3
2018-01-06T00:03:32.047Z,955.3
2018-01-06T00:04:34.644Z,955.4
2018-01-06T00:05:36.427Z,955.4
2018-01-06T00:06:38.283Z,955.4
2018-01-06T00:07:40.206Z,955.3
2018-01-06T00:08:42.026Z,955.4
2018-01-06T00:09:43.859Z,955.4
2018-01-06T00:10:45.714Z,955.4
2018-01-06T00:11:48.628Z,955.4
2018-01-06T00:12:50.884Z,955.4
2018-01-06T00:13:52.687Z,955.4
2018-01-06T00:14:54.492Z,955.4
2018-01-06T00:15:56.365Z,955.4
2018-01-06T00:16:58.132Z,955.4
2018-01-06T00:17:59.920Z,955.4
2018-01-06T00:19:02.125Z,955.4
2018-01-06T00:20:11.461Z,955.4
2018-01-06T00:21:13.316Z,955.4
2018-01-06T00:22:16.364Z,955.4
2018-01-06T00:23:18.299Z,955.4
2018-01-06T00:24:25.335Z,955.4
2018-01-06T00:25:36.713Z,955.4
2018-01-06T00:26:41.222Z,955.4
2018-01-06T00:27:43.056Z,955.3
2018-01-06T00:28:54.509Z,955.3
2018-01-06T00:29:58.137Z,955.3
2018-01-06T00:31:12.347Z,955.3
2018-01-06T00:32:13.734Z,955.3
2018-01-06T00:33:18.066Z,955.3
2018-01-06T00:34:20.011Z,955.2
2018-01-06T00:35:23.239Z,955.3
2018-01-06T00:36:26.598Z,955.3
2018-01-06T00:37:28.496Z,955.3
2018-01-06T00:38:35.028Z,955.3
2018-01-06T00:39:39.672Z,955.3
2018-01-06T00:40:41.613Z,955.3
2018-01-06T00:41:45.504Z,955.4
2018-01-06T00:42:48.318Z,955.3
2018-01-06T00:43:50.589Z,955.4
2018-01-06T00:44:52.501Z,955.4
2018-01-06T00:45:56.630Z,955.4
2018-01-06T00:47:02.356Z,955.4
2018-01-06T00:48:05.443Z,955.3
2018-01-06T00:49:27.517Z,955.4
2018-01-06T00:50:29.388Z,955.4
2018-01-06T00:51:34.163Z,955.4
2018-01-06T00:52:36.161Z,955.4
2018-01-06T00:53:41.324Z,955.4
2018-01-06T00:54:46.292Z,955.4
2018-01-06T00:55:48.282Z,955.5
2018-01-06T00:56:52.833Z,955.4
2018-01-06T00:57:54.716Z,955.4
2018-01-06T00:59:15.403Z,955.4
2018-01-06T01:00:18.673Z,955.4
2018-01-06T01:01:24.502Z,955.4
2018-01-06T01:02:28.175Z,955.4
2018-01-06T01:03:30.070Z,955.4
2018-01-06T01:04:32.670Z,955.4
2018-01-06T01:05:34.611Z,955.4
2018-01-06T01:06:36.660Z,955.4
2018-01-06T01:07:40.996Z,955.4
2018-01-06T01:08:42.816Z,955.4
2018-01-06T01:09:44.646Z,955.4
2018-01-06T01:10:46.581Z,955.4
2018-01-06T01:11:49.608Z,955.3
2018-01-06T01:12:53.150Z,955.4
2018-01-06T01:13:55.855Z,955.3
2018-01-06T01:15:00.951Z,955.4
2018-01-06T01:16:06.729Z,955.3
2018-01-06T01:17:08.969Z,955.4
2018-01-06T01:19:03.146Z,955.4
2018-01-06T01:22:58.425Z,955.5
2018-01-06T01:24:01.814Z,955.5
2018-01-06T01:25:07.881Z,955.5
2018-01-06T01:26:10.275Z,955.5
2018-01-06T01:27:15.177Z,955.6
2018-01-06T01:28:17.079Z,955.6
2018-01-06T01:36:16.980Z,955.7
2018-01-06T01:37:18.777Z,955.7
2018-01-06T01:38:20.423Z,955.7
2018-01-06T01:39:31.077Z,955.7
2018-01-06T01:40:58.662Z,955.8
2018-01-06T01:42:15.616Z,955.8
2018-01-06T01:43:24.921Z,955.7
2018-01-06T01:44:26.731Z,955.8
2018-01-06T01:45:35.388Z,955.8
2018-01-06T01:46:45.421Z,955.7
2018-01-06T01:47:47.233Z,955.7
2018-01-06T01:51:32.042Z,955.8
2018-01-06T01:53:00.337Z,955.8
2018-01-06T01:54:10.324Z,955.8
2018-01-06T01:55:40.745Z,955.9
2018-01-06T01:56:42.530Z,955.9
2018-01-06T01:57:44.327Z,955.9
2018-01-06T01:58:46.087Z,955.9
2018-01-06T01:59:48.119Z,955.8
2018-01-06T02:00:50.370Z,955.8
2018-01-06T02:12:24.975Z,955.9
2018-01-06T02:13:26.817Z,955.9
2018-01-06T02:14:28.550Z,956.0
2018-01-06T02:16:14.533Z,956.0
2018-01-06T02:17:16.298Z,956.0
2018-01-06T02:18:19.139Z,956.0
2018-01-06T02:19:20.879Z,956.0
2018-01-06T02:20:22.710Z,956.0
2018-01-06T02:21:24.472Z,955.9
2018-01-06T02:22:26.350Z,955.9
2018-01-06T02:23:28.098Z,955.9
2018-01-06T02:24:29.876Z,956.0
2018-01-06T02:25:31.742Z,956.0
2018-01-06T02:26:33.582Z,956.0
2018-01-06T02:27:35.377Z,956.0
2018-01-06T02:28:37.150Z,956.0
2018-01-06T02:29:39.616Z,956.1
2018-01-06T02:30:41.444Z,956.0
2018-01-06T02:31:43.269Z,956.0
2018-01-06T02:32:45.097Z,956.0
2018-01-06T02:33:46.914Z,955.9
2018-01-06T02:34:48.769Z,955.9
2018-01-06T02:35:50.581Z,955.9
2018-01-06T02:36:52.573Z,955.9
2018-01-06T02:37:54.450Z,955.9
2018-01-06T02:38:56.317Z,956.0
2018-01-06T02:39:58.202Z,955.9
2018-01-06T02:41:00.138Z,956.0
2018-01-06T02:42:01.989Z,956.0
2018-01-06T02:43:03.874Z,955.9
2018-01-06T02:44:05.802Z,955.9
2018-01-06T02:45:07.764Z,955.9
2018-01-06T02:46:09.689Z,955.9
2018-01-06T02:47:11.616Z,955.9
2018-01-06T02:48:13.617Z,955.9
2018-01-06T02:49:15.592Z,955.9
2018-01-06T02:50:17.611Z,955.9
2018-01-06T02:51:19.506Z,955.9
2018-01-06T02:52:21.486Z,955.9
2018-01-06T02:53:23.400Z,956.0
2018-01-06T02:54:25.320Z,955.9
2018-01-06T03:01:02.997Z,956.0
2018-01-06T03:02:04.741Z,956.0
2018-01-06T03:03:06.464Z,956.0
2018-01-06T03:04:08.423Z,956.0
2018-01-06T03:05:10.414Z,956.0
2018-01-06T03:06:12.356Z,956.0
2018-01-06T03:07:14.353Z,956.0
2018-01-06T03:08:16.383Z,956.0
2018-01-06T03:09:18.359Z,956.0
2018-01-06T03:10:20.335Z,956.0
2018-01-06T03:11:22.322Z,956.0
2018-01-06T03:12:24.330Z,956.0
2018-01-06T03:13:26.231Z,956.0
2018-01-06T03:14:28.224Z,956.0
2018-01-06T03:15:30.173Z,956.0
2018-01-06T03:16:32.146Z,956.0
2018-01-06T03:17:34.114Z,956.0
2018-01-06T03:18:36.099Z,956.0
2018-01-06T03:19:38.050Z,956.1
2018-01-06T03:20:40.070Z,956.1
2018-01-06T03:21:42.074Z,956.1
2018-01-06T03:22:43.978Z,956.1
2018-01-06T03:23:46.006Z,956.1
2018-01-06T03:24:47.962Z,956.0
2018-01-06T03:25:50.009Z,956.0
2018-01-06T03:26:52.000Z,956.0
2018-01-06T03:27:53.981Z,956.1
2018-01-06T03:28:56.003Z,956.1
2018-01-06T03:29:57.968Z,956.1
2018-01-06T03:30:59.897Z,956.2
2018-01-06T03:32:01.886Z,956.1
2018-01-06T03:33:03.864Z,956.2
2018-01-06T03:34:05.830Z,956.2
2018-01-06T03:35:07.760Z,956.2
2018-01-06T03:36:09.680Z,956.2
2018-01-06T03:37:11.723Z,956.1
2018-01-06T03:38:13.706Z,956.1
2018-01-06T03:39:15.675Z,956.1
2018-01-06T03:40:17.717Z,956.1
2018-01-06T03:41:19.670Z,956.2
2018-01-06T03:42:21.633Z,956.2
2018-01-06T03:43:23.634Z,956.2
2018-01-06T03:44:25.635Z,956.2
2018-01-06T03:45:27.592Z,956.2
2018-01-06T03:46:29.484Z,956.2
2018-01-06T03:47:31.457Z,956.1
2018-01-06T03:48:33.388Z,956.1
2018-01-06T03:49:35.263Z,956.1
2018-01-06T03:50:37.187Z,956.2
2018-01-06T03:51:39.126Z,956.2
2018-01-06T03:52:41.046Z,956.2
2018-01-06T03:53:43.005Z,956.3
2018-01-06T03:54:44.988Z,956.2
2018-01-06T03:55:46.939Z,956.2
2018-01-06T03:56:48.911Z,956.2
2018-01-06T03:57:50.946Z,956.2
2018-01-06T03:58:52.923Z,956.2
2018-01-06T03:59:54.912Z,956.3
2018-01-06T04:00:56.971Z,956.3
2018-01-06T04:01:58.997Z,956.3
2018-01-06T04:03:01.016Z,956.3
2018-01-06T04:04:02.952Z,956.3
2018-01-06T04:05:04.864Z,956.3
2018-01-06T04:06:06.830Z,956.3
2018-01-06T04:07:08.823Z,956.3
2018-01-06T04:08:10.861Z,956.3
2018-01-06T04:09:12.814Z,956.3
2018-01-06T04:10:14.820Z,956.3
2018-01-06T04:11:16.742Z,956.3
2018-01-06T04:12:18.694Z,956.3
2018-01-06T04:13:20.649Z,956.4
2018-01-06T04:14:22.553Z,956.3
2018-01-06T04:15:24.543Z,956.3
2018-01-06T04:16:26.539Z,956.3
2018-01-06T04:17:28.429Z,956.3
2018-01-06T04:18:30.429Z,956.4
2018-01-06T04:19:32.354Z,956.4
2018-01-06T04:20:34.261Z,956.4
2018-01-06T04:21:36.234Z,956.3
2018-01-06T04:22:38.203Z,956.4
2018-01-06T04:23:40.220Z,956.3
2018-01-06T04:24:42.162Z,956.3
2018-01-06T04:25:44.122Z,956.3
2018-01-06T04:26:46.036Z,956.3
2018-01-06T04:27:47.946Z,956.3
2018-01-06T04:28:49.954Z,956.3
2018-01-06T04:29:51.840Z,956.4
2018-01-06T04:30:53.781Z,956.4
2018-01-06T04:31:55.762Z,956.3
2018-01-06T04:32:57.674Z,956.3
2018-01-06T04:33:59.589Z,956.3
2018-01-06T04:35:01.525Z,956.3
2018-01-06T04:36:03.496Z,956.3
2018-01-06T04:37:05.427Z,956.3
2018-01-06T04:38:07.383Z,956.4
2018-01-06T04:39:09.281Z,956.4
2018-01-06T04:40:11.256Z,956.4
2018-01-06T04:41:13.172Z,956.5
2018-01-06T04:42:15.136Z,956.4
2018-01-06T04:43:17.090Z,956.4
2018-01-06T04:44:18.981Z,956.4
2018-01-06T04:45:20.897Z,956.4
2018-01-06T04:46:22.917Z,956.4
2018-01-06T04:47:24.906Z,956.4
2018-01-06T04:48:26.851Z,956.3
2018-01-06T04:49:28.805Z,956.4
2018-01-06T04:50:30.747Z,956.4
2018-01-06T04:51:32.647Z,956.4
2018-01-06T04:52:34.717Z,956.4
2018-01-06T04:53:36.692Z,956.4
2018-01-06T04:54:38.708Z,956.4
2018-01-06T04:55:40.694Z,956.4
2018-01-06T04:56:42.767Z,956.4
2018-01-06T04:57:44.718Z,956.5
2018-01-06T04:58:46.717Z,956.4
2018-01-06T04:59:48.699Z,956.4
2018-01-06T05:00:50.631Z,956.5
2018-01-06T05:01:52.740Z,956.5
2018-01-06T05:02:54.703Z,956.5
2018-01-06T05:03:56.648Z,956.5
2018-01-06T05:04:58.601Z,956.5
2018-01-06T05:06:00.589Z,956.6
2018-01-06T05:07:02.508Z,956.6
2018-01-06T05:08:04.409Z,956.7
2018-01-06T05:09:06.461Z,956.7
2018-01-06T05:10:08.430Z,956.8
2018-01-06T05:11:10.382Z,956.7
2018-01-06T05:12:12.308Z,956.7
2018-01-06T05:13:14.302Z,956.8
2018-01-06T05:14:16.208Z,956.7
2018-01-06T05:15:18.243Z,956.8
2018-01-06T05:16:20.213Z,956.7
2018-01-06T05:17:22.129Z,956.8
2018-01-06T05:19:37.416Z,956.8
2018-01-06T05:20:39.287Z,956.9
2018-01-06T05:21:41.457Z,956.9
2018-01-06T05:22:43.297Z,956.9
2018-01-06T05:23:45.242Z,956.8
2018-01-06T05:24:47.580Z,956.8
2018-01-06T05:25:50.346Z,956.9
2018-01-06T05:26:52.382Z,956.9
2018-01-06T05:27:54.183Z,956.9
2018-01-06T05:28:56.029Z,956.9
2018-01-06T05:29:57.825Z,956.9
2018-01-06T05:31:00.241Z,956.9
2018-01-06T05:32:01.961Z,956.9
2018-01-06T05:33:03.722Z,956.9
2018-01-06T05:34:05.499Z,956.9
2018-01-06T05:35:07.217Z,956.9
2018-01-06T05:36:08.888Z,956.9
2018-01-06T05:37:10.646Z,956.9
2018-01-06T05:38:12.372Z,956.9
2018-01-06T05:39:14.064Z,957.0
2018-01-06T05:40:15.767Z,957.0
2018-01-06T05:41:17.455Z,957.1
2018-01-06T05:42:19.205Z,957.1
2018-01-06T05:43:20.885Z,957.0
2018-01-06T05:44:22.559Z,957.0
2018-01-06T05:45:24.272Z,957.0
2018-01-06T05:46:25.950Z,957.0
2018-01-06T05:47:27.650Z,956.9
2018-01-06T05:48:29.313Z,957.0
2018-01-06T05:49:31.050Z,957.0
2018-01-06T05:50:32.703Z,957.0
2018-01-06T05:51:34.368Z,957.0
2018-01-06T05:52:36.142Z,957.0
2018-01-06T05:53:37.910Z,957.0
2018-01-06T05:54:39.748Z,957.0
2018-01-06T05:55:41.517Z,957.1
2018-01-06T05:56:43.241Z,957.1
2018-01-06T05:57:44.886Z,957.1
2018-01-06T05:58:46.568Z,957.1
2018-01-06T05:59:48.248Z,957.1
2018-01-06T06:00:49.934Z,957.1
2018-01-06T06:01:51.608Z,957.0
2018-01-06T06:02:53.353Z,957.0
2018-01-06T06:03:55.082Z,957.1
2018-01-06T06:04:56.783Z,957.1
2018-01-06T06:05:58.567Z,957.1
2018-01-06T06:07:00.295Z,957.1
2018-01-06T06:08:02.000Z,957.1
2018-01-06T06:09:03.753Z,957.0
2018-01-06T06:10:05.446Z,957.1
2018-01-06T06:11:07.158Z,957.1
2018-01-06T06:12:08.895Z,957.1
2018-01-06T06:13:10.662Z,957.0
2018-01-06T06:14:12.354Z,957.0
2018-01-06T06:15:14.116Z,957.1
2018-01-06T06:16:15.845Z,957.1
2018-01-06T06:17:17.560Z,957.1
2018-01-06T06:18:19.305Z,957.1
2018-01-06T06:19:21.090Z,957.1
2018-01-06T06:20:22.798Z,957.1
2018-01-06T06:21:24.512Z,957.1
2018-01-06T06:22:26.271Z,957.2
2018-01-06T06:23:28.050Z,957.2
2018-01-06T06:24:29.760Z,957.2
2018-01-06T06:25:31.461Z,957.1
2018-01-06T06:26:33.208Z,957.1
2018-01-06T06:27:34.955Z,957.1
2018-01-06T06:28:36.689Z,957.1
2018-01-06T06:29:38.460Z,957.1
2018-01-06T06:30:40.194Z,957.1
2018-01-06T06:31:41.924Z,957.1
2018-01-06T06:32:43.640Z,957.1
2018-01-06T06:33:45.357Z,957.2
2018-01-06T06:34:47.126Z,957.2
2018-01-06T06:35:48.907Z,957.1
2018-01-06T06:36:50.640Z,957.2
2018-01-06T06:37:52.402Z,957.1
2018-01-06T06:38:54.161Z,957.2
2018-01-06T06:39:55.848Z,957.2
2018-01-06T06:40:57.575Z,957.2
2018-01-06T06:41:59.374Z,957.1
2018-01-06T06:43:01.114Z,957.1
2018-01-06T06:44:02.841Z,957.1
2018-01-06T06:45:04.637Z,957.1
2018-01-06T06:46:06.327Z,957.2
2018-01-06T06:47:08.735Z,957.1
2018-01-06T06:48:10.395Z,957.2
2018-01-06T06:49:12.083Z,957.2
2018-01-06T06:50:13.799Z,957.2
2018-01-06T06:51:15.467Z,957.2
2018-01-06T06:52:17.147Z,957.2
2018-01-06T06:53:18.823Z,957.3
2018-01-06T06:54:20.507Z,957.2
2018-01-06T06:55:22.179Z,957.2
2018-01-06T07:01:52.678Z,957.2
2018-01-06T07:02:54.315Z,957.2
2018-01-06T07:03:55.961Z,957.2
2018-01-06T07:04:57.633Z,957.2
2018-01-06T07:05:59.277Z,957.2
2018-01-06T07:07:00.921Z,957.2
2018-01-06T07:08:02.571Z,957.2
2018-01-06T07:09:04.224Z,957.2
2018-01-06T07:10:05.862Z,957.3
2018-01-06T07:11:07.500Z,957.3
2018-01-06T07:12:09.148Z,957.3
2018-01-06T07:13:11.119Z,957.3
2018-01-06T07:14:12.767Z,957.3
2018-01-06T07:15:14.416Z,957.3
2018-01-06T07:16:16.066Z,957.3
2018-01-06T07:17:17.716Z,957.3
2018-01-06T07:18:19.353Z,957.3
2018-01-06T07:19:21.004Z,957.4
2018-01-06T07:20:22.657Z,957.4
2018-01-06T07:21:24.304Z,957.4
2018-01-06T07:22:25.965Z,957.5
2018-01-06T07:23:27.609Z,957.4
2018-01-06T07:24:29.257Z,957.5
2018-01-06T07:25:30.898Z,957.5
2018-01-06T07:26:32.545Z,957.5
2018-01-06T07:27:34.182Z,957.5
2018-01-06T07:28:35.836Z,957.5
2018-01-06T07:29:37.481Z,957.5
2018-01-06T07:30:39.126Z,957.5
2018-01-06T07:31:40.768Z,957.4
2018-01-06T07:32:42.421Z,957.5
2018-01-06T07:33:44.060Z,957.5
2018-01-06T07:34:45.713Z,957.5
2018-01-06T07:35:47.359Z,957.5
2018-01-06T07:36:49.007Z,957.5
2018-01-06T07:37:50.649Z,957.5
2018-01-06T07:38:52.308Z,957.5
2018-01-06T07:39:53.959Z,957.5
2018-01-06T07:40:55.617Z,957.6
2018-01-06T07:41:57.270Z,957.6
2018-01-06T07:42:58.913Z,957.6
2018-01-06T07:44:00.571Z,957.6
2018-01-06T07:45:02.223Z,957.7
2018-01-06T07:46:03.871Z,957.7
2018-01-06T07:47:05.519Z,957.8
2018-01-06T07:48:07.162Z,957.8
2018-01-06T07:49:08.818Z,957.9
2018-01-06T07:50:10.460Z,957.8
2018-01-06T07:51:12.116Z,957.9
2018-01-06T07:52:13.767Z,957.9
2018-01-06T07:53:15.419Z,957.9
2018-01-06T07:54:17.072Z,957.9
2018-01-06T07:55:18.717Z,957.9
2018-01-06T07:56:20.361Z,957.9
2018-01-06T07:57:22.010Z,958.0
2018-01-06T07:58:23.677Z,958.0
2018-01-06T07:59:25.382Z,957.9
2018-01-06T08:00:27.014Z,958.0
2018-01-06T08:01:28.664Z,957.9
2018-01-06T08:02:30.326Z,958.0
2018-01-06T08:03:31.971Z,958.0
2018-01-06T08:04:33.619Z,958.0
2018-01-06T08:05:35.270Z,958.1
2018-01-06T08:06:36.922Z,958.1
2018-01-06T08:07:38.568Z,958.1
2018-01-06T08:08:40.237Z,958.1
2018-01-06T08:09:41.892Z,958.2
2018-01-06T08:10:43.544Z,958.2
2018-01-06T08:11:45.197Z,958.2
2018-01-06T08:12:46.881Z,958.2
2018-01-06T08:13:48.582Z,958.2
2018-01-06T08:14:50.248Z,958.2
2018-01-06T08:15:51.896Z,958.1
2018-01-06T08:16:53.795Z,958.2
2018-01-06T08:17:55.594Z,958.1
2018-01-06T08:18:57.539Z,958.2
2018-01-06T08:19:59.500Z,958.2
2018-01-06T08:21:01.426Z,958.2
2018-01-06T08:22:03.339Z,958.2
2018-01-06T08:23:05.323Z,958.3
2018-01-06T08:24:07.281Z,958.3
2018-01-06T08:25:09.245Z,958.3
2018-01-06T08:26:11.247Z,958.4
2018-01-06T08:27:13.177Z,958.4
2018-01-06T08:28:15.183Z,958.4
2018-01-06T08:29:17.230Z,958.4
2018-01-06T08:30:19.126Z,958.4
2018-01-06T08:31:21.118Z,958.4
2018-01-06T08:32:23.022Z,958.4
2018-01-06T08:33:25.020Z,958.4
2018-01-06T08:34:26.984Z,958.4
2018-01-06T08:35:29.020Z,958.4
2018-01-06T08:36:30.933Z,958.5
2018-01-06T08:37:32.925Z,958.5
2018-01-06T08:38:34.956Z,958.5
2018-01-06T08:39:36.930Z,958.5
2018-01-06T08:40:38.824Z,958.6
2018-01-06T08:41:40.889Z,958.5
2018-01-06T08:42:42.889Z,958.6
2018-01-06T08:43:44.880Z,958.6
2018-01-06T08:44:46.956Z,958.6
2018-01-06T08:45:48.970Z,958.6
2018-01-06T08:46:51.084Z,958.6
2018-01-06T08:47:53.055Z,958.7
2018-01-06T08:48:55.000Z,958.7
2018-01-06T08:49:57.006Z,958.7
2018-01-06T08:50:58.924Z,958.7
2018-01-06T08:52:00.669Z,958.7
2018-01-06T08:53:02.402Z,958.8
2018-01-06T08:54:04.509Z,958.7
2018-01-06T08:55:06.374Z,958.7
2018-01-06T08:56:08.289Z,958.7
2018-01-06T08:57:10.311Z,958.7
2018-01-06T08:58:12.287Z,958.8
2018-01-06T08:59:14.238Z,958.8
2018-01-06T09:00:16.253Z,958.8
2018-01-06T09:01:18.177Z,958.9
2018-01-06T09:02:20.249Z,958.9
2018-01-06T09:03:22.266Z,958.9
2018-01-06T09:04:25.606Z,958.9
2018-01-06T09:05:27.759Z,959.0
2018-01-06T09:06:29.697Z,959.0
2018-01-06T09:07:31.786Z,959.0
2018-01-06T09:08:33.812Z,959.0
2018-01-06T09:09:36.003Z,958.9
2018-01-06T09:10:37.971Z,959.0
2018-01-06T09:11:40.004Z,959.0
2018-01-06T09:12:42.004Z,959.0
2018-01-06T09:13:45.033Z,959.0
2018-01-06T09:14:48.430Z,959.0
2018-01-06T09:15:50.276Z,959.0
2018-01-06T09:16:52.207Z,959.1
2018-01-06T09:18:25.261Z,959.1
2018-01-06T09:19:28.854Z,959.1
2018-01-06T09:20:37.576Z,959.2
2018-01-06T09:21:38.940Z,959.1
2018-01-06T09:22:41.042Z,959.1
2018-01-06T09:23:43.046Z,959.1
2018-01-06T09:24:45.055Z,959.1
2018-01-06T09:25:47.012Z,959.1
2018-01-06T09:26:49.029Z,959.1
2018-01-06T09:27:51.044Z,959.1
2018-01-06T09:28:53.176Z,959.1
2018-01-06T09:29:55.188Z,959.1
2018-01-06T09:30:57.239Z,959.1
2018-01-06T09:31:59.209Z,959.1
2018-01-06T09:33:01.455Z,959.1
2018-01-06T09:34:03.681Z,959.2
2018-01-06T09:35:06.004Z,959.2
2018-01-06T09:36:08.122Z,959.2
2018-01-06T09:37:09.919Z,959.2
2018-01-06T09:38:12.150Z,959.2
2018-01-06T09:39:14.288Z,959.1
2018-01-06T09:40:16.398Z,959.2
2018-01-06T09:41:18.585Z,959.2
2018-01-06T09:42:20.628Z,959.2
2018-01-06T09:43:22.821Z,959.2
2018-01-06T09:44:24.807Z,959.2
2018-01-06T09:45:26.771Z,959.2
2018-01-06T09:46:29.334Z,959.3
2018-01-06T09:47:32.126Z,959.3
2018-01-06T09:48:34.134Z,959.3
2018-01-06T09:49:36.482Z,959.3
2018-01-06T09:50:38.651Z,959.3
2018-01-06T09:51:40.743Z,959.3
2018-01-06T09:52:43.647Z,959.4
2018-01-06T09:53:45.842Z,959.4
2018-01-06T09:54:47.925Z,959.4
2018-01-06T09:55:50.007Z,959.4
2018-01-06T09:57:12.887Z,959.4
2018-01-06T09:58:22.791Z,959.4
2018-01-06T09:59:24.932Z,959.4
2018-01-06T10:00:27.140Z,959.4
2018-01-06T10:01:29.223Z,959.4
2018-01-06T10:02:31.162Z,959.4
2018-01-06T10:03:33.594Z,959.4
2018-01-06T10:04:37.917Z,959.4
2018-01-06T10:05:39.741Z,959.5
2018-01-06T10:06:41.945Z,959.5
2018-01-06T10:07:43.958Z,959.4
2018-01-06T10:08:45.836Z,959.5
2018-01-06T10:09:47.774Z,959.4
2018-01-06T10:10:50.192Z,959.5
2018-01-06T10:11:52.435Z,959.4
2018-01-06T10:12:54.858Z,959.4
2018-01-06T10:13:57.485Z,959.4
2018-01-06T10:14:59.371Z,959.4
2018-01-06T10:16:01.281Z,959.5
2018-01-06T10:17:03.224Z,959.5
2018-01-06T10:18:05.131Z,959.5
2018-01-06T10:19:07.032Z,959.5
2018-01-06T10:20:09.112Z,959.5
2018-01-06T10:21:11.090Z,959.5
2018-01-06T10:22:13.006Z,959.5
2018-01-06T10:23:14.858Z,959.6
2018-01-06T10:24:16.777Z,959.6
2018-01-06T10:25:18.777Z,959.6
2018-01-06T10:26:20.651Z,959.6
2018-01-06T10:27:23.415Z,959.6
2018-01-06T10:28:25.318Z,959.6
2018-01-06T10:29:27.956Z,959.6
2018-01-06T10:30:30.527Z,959.6
2018-01-06T10:31:32.418Z,959.6
2018-01-06T10:32:37.013Z,959.6
2018-01-06T10:33:38.940Z,959.6
2018-01-06T10:34:40.823Z,959.6
2018-01-06T10:35:43.752Z,959.6
2018-01-06T10:36:45.818Z,959.6
2018-01-06T10:37:53.316Z,959.6
2018-01-06T10:38:55.373Z,959.6
2018-01-06T10:39:59.517Z,959.6
2018-01-06T10:41:01.933Z,959.6
2018-01-06T10:42:04.630Z,959.6
2018-01-06T10:43:06.828Z,959.7
2018-01-06T10:44:09.298Z,959.6
2018-01-06T10:45:11.347Z,959.6
2018-01-06T10:46:13.446Z,959.7
2018-01-06T10:47:15.777Z,959.7
2018-01-06T10:48:17.984Z,959.7
2018-01-06T10:49:20.243Z,959.7
2018-01-06T10:50:25.265Z,959.6
2018-01-06T10:51:27.330Z,959.7
2018-01-06T10:52:29.330Z,959.7
2018-01-06T10:54:43.291Z,959.6
2018-01-06T11:01:26.506Z,959.5
2018-01-06T11:02:28.345Z,959.5
2018-01-06T11:03:30.106Z,959.6
2018-01-06T11:04:32.050Z,959.6
2018-01-06T11:05:33.963Z,959.6
2018-01-06T11:06:35.860Z,959.6
2018-01-06T11:07:39.473Z,959.6
2018-01-06T11:08:44.081Z,959.6
2018-01-06T11:09:46.248Z,959.6
2018-01-06T11:10:49.440Z,959.7
2018-01-06T11:11:55.648Z,959.7
2018-01-06T11:12:58.737Z,959.7
2018-01-06T11:14:01.074Z,959.7
2018-01-06T11:15:06.335Z,959.7
2018-01-06T11:16:09.665Z,959.7
2018-01-06T11:17:13.963Z,959.6
2018-01-06T11:18:16.041Z,959.7
2018-01-06T11:19:18.407Z,959.7
2018-01-06T11:20:20.784Z,959.7
2018-01-06T11:21:23.592Z,959.7
2018-01-06T11:22:25.728Z,959.7
2018-01-06T11:23:27.903Z,959.7
2018-01-06T11:24:30.922Z,959.7
2018-01-06T11:25:33.019Z,959.7
2018-01-06T11:26:35.536Z,959.7
2018-01-06T11:27:39.482Z,959.7
2018-01-06T11:28:42.195Z,959.7
2018-01-06T11:29:44.339Z,959.7
2018-01-06T11:30:48.263Z,959.7
2018-01-06T11:31:50.382Z,959.7
2018-01-06T11:32:52.459Z,959.7
2018-01-06T11:33:54.995Z,959.7
2018-01-06T11:34:57.209Z,959.7
2018-01-06T11:36:00.104Z,959.7
2018-01-06T11:37:02.900Z,959.7
2018-01-06T11:38:06.708Z,959.7
2018-01-06T11:39:09.375Z,959.7
2018-01-06T11:40:13.215Z,959.7
2018-01-06T11:41:15.563Z,959.7
2018-01-06T11:42:18.247Z,959.7
2018-01-06T11:43:21.008Z,959.6
2018-01-06T11:44:23.789Z,959.7
2018-01-06T11:45:26.310Z,959.7
2018-01-06T11:46:28.686Z,959.6
2018-01-06T11:47:31.081Z,959.6
2018-01-06T11:48:33.920Z,959.7
2018-01-06T11:49:36.707Z,959.6
2018-01-06T11:50:40.191Z,959.7
2018-01-06T11:51:44.744Z,959.7
2018-01-06T11:52:47.730Z,959.7
2018-01-06T11:53:50.127Z,959.7
2018-01-06T11:54:52.392Z,959.7
2018-01-06T11:55:54.722Z,959.6
2018-01-06T11:56:58.596Z,959.6
2018-01-06T11:58:01.228Z,959.6
2018-01-06T11:59:07.591Z,959.6
2018-01-06T12:00:11.440Z,959.6
2018-01-06T12:01:14.120Z,959.6
2018-01-06T12:02:16.121Z,959.6
2018-01-06T12:03:18.864Z,959.6
2018-01-06T12:04:24.555Z,959.6
2018-01-06T12:05:26.995Z,959.6
2018-01-06T12:06:30.127Z,959.6
2018-01-06T12:07:32.620Z,959.6
2018-01-06T12:08:34.724Z,959.6
2018-01-06T12:09:37.013Z,959.6
2018-01-06T12:10:40.019Z,959.6
2018-01-06T12:11:43.130Z,959.6
2018-01-06T12:12:47.904Z,959.6
2018-01-06T12:13:52.246Z,959.5
2018-01-06T12:14:54.423Z,959.6
2018-01-06T12:15:58.378Z,959.6
2018-01-06T12:17:01.276Z,959.6
2018-01-06T12:18:04.584Z,959.6
2018-01-06T12:19:06.883Z,959.6
2018-01-06T12:20:09.127Z,959.6
2018-01-06T12:21:11.519Z,959.6
2018-01-06T12:22:13.927Z,959.6
2018-01-06T12:23:15.912Z,959.6
2018-01-06T12:24:19.423Z,959.6
2018-01-06T12:25:21.717Z,959.6
2018-01-06T12:26:23.878Z,959.7
2018-01-06T12:27:25.995Z,959.7
2018-01-06T12:28:28.299Z,959.7
2018-01-06T12:29:31.412Z,959.7
2018-01-06T12:30:33.740Z,959.7
2018-01-06T12:31:35.914Z,959.7
2018-01-06T12:32:39.678Z,959.7
2018-01-06T12:33:41.561Z,959.6
2018-01-06T12:34:43.508Z,959.7
2018-01-06T12:35:46.528Z,959.7
2018-01-06T12:36:48.938Z,959.7
2018-01-06T12:37:50.950Z,959.6
2018-01-06T12:38:52.882Z,959.6
2018-01-06T12:39:55.451Z,959.5
2018-01-06T12:40:58.335Z,959.5
2018-01-06T12:42:00.321Z,959.5
2018-01-06T12:43:02.483Z,959.6
2018-01-06T12:44:04.450Z,959.6
2018-01-06T12:45:06.545Z,959.6
2018-01-06T12:46:08.533Z,959.6
2018-01-06T12:47:10.491Z,959.6
2018-01-06T12:48:12.393Z,959.6
2018-01-06T12:49:14.422Z,959.6
2018-01-06T12:50:16.359Z,959.6
2018-01-06T12:51:18.368Z,959.6
2018-01-06T12:52:20.364Z,959.6
2018-01-06T12:53:22.309Z,959.7
2018-01-06T12:54:24.236Z,959.7
2018-01-06T12:55:26.231Z,959.8
2018-01-06T12:56:28.196Z,959.7
2018-01-06T12:57:30.115Z,959.8
2018-01-06T12:58:32.095Z,959.7
2018-01-06T12:59:34.027Z,959.7
2018-01-06T13:00:36.003Z,959.8
2018-01-06T13:01:38.363Z,959.7
2018-01-06T13:02:40.421Z,959.8
2018-01-06T13:03:42.378Z,959.8
2018-01-06T13:04:44.353Z,959.8
2018-01-06T13:05:47.092Z,959.8
2018-01-06T13:06:49.137Z,959.8
2018-01-06T13:07:51.213Z,959.9
2018-01-06T13:08:53.274Z,959.8
2018-01-06T13:09:55.821Z,959.8
2018-01-06T13:10:57.875Z,959.8
2018-01-06T13:11:59.977Z,959.8
2018-01-06T13:13:01.990Z,959.9
2018-01-06T13:14:04.002Z,959.9
2018-01-06T13:15:06.000Z,959.9
2018-01-06T13:16:08.024Z,959.9
2018-01-06T13:17:09.994Z,959.9
2018-01-06T13:18:12.049Z,959.9
2018-01-06T13:19:14.103Z,959.9
2018-01-06T13:20:16.310Z,959.9
2018-01-06T13:21:18.298Z,959.9
2018-01-06T13:22:22.325Z,959.9
2018-01-06T13:23:24.809Z,960.0
2018-01-06T13:24:26.818Z,960.0
2018-01-06T13:25:28.803Z,960.0
2018-01-06T13:26:30.912Z,960.0
2018-01-06T13:27:32.980Z,960.0
2018-01-06T13:28:36.793Z,960.0
2018-01-06T13:29:39.003Z,960.1
2018-01-06T13:30:41.012Z,960.1
2018-01-06T13:31:43.196Z,960.1
2018-01-06T13:32:45.322Z,960.1
2018-01-06T13:33:47.356Z,960.1
2018-01-06T13:34:49.377Z,960.2
2018-01-06T13:35:51.500Z,960.2
2018-01-06T13:36:53.498Z,960.1
2018-01-06T13:37:55.445Z,960.2
2018-01-06T13:38:57.424Z,960.2
2018-01-06T13:39:59.715Z,960.2
2018-01-06T13:41:01.907Z,960.3
2018-01-06T13:42:03.997Z,960.2
2018-01-06T13:43:06.381Z,960.2
2018-01-06T13:44:08.786Z,960.2
2018-01-06T13:45:10.803Z,960.3
2018-01-06T13:46:12.804Z,960.3
2018-01-06T13:47:14.857Z,960.3
2018-01-06T13:48:16.845Z,960.3
2018-01-06T13:49:18.989Z,960.3
2018-01-06T13:50:21.098Z,960.3
2018-01-06T13:51:23.175Z,960.3
2018-01-06T13:52:25.229Z,960.3
2018-01-06T13:53:27.309Z,960.3
2018-01-06T13:54:29.287Z,960.3
2018-01-06T13:55:31.292Z,960.3
2018-01-06T13:56:33.226Z,960.3
2018-01-06T13:57:35.289Z,960.3
2018-01-06T13:58:37.284Z,960.4
2018-01-06T13:59:39.314Z,960.4
2018-01-06T14:00:42.288Z,960.4
2018-01-06T14:01:44.295Z,960.4
2018-01-06T14:02:46.349Z,960.4
2018-01-06T14:03:48.236Z,960.5
2018-01-06T14:04:50.223Z,960.5
2018-01-06T14:05:52.264Z,960.6
2018-01-06T14:06:54.434Z,960.5
2018-01-06T14:07:56.969Z,960.5
2018-01-06T14:08:59.710Z,960.5